createdAt,value
2022-10-30T05:50:51.010Z,15.83
2022-10-30T05:51:52.836Z,15.83
2022-10-30T05:52:54.736Z,15.83
2022-10-30T05:53:56.562Z,15.83
2022-10-30T05:54:58.396Z,15.83
2022-10-30T05:56:00.222Z,15.82
2022-10-30T05:57:02.057Z,15.79
2022-10-30T05:58:04.005Z,15.78
2022-10-30T05:59:05.820Z,15.76
2022-10-30T06:00:08.055Z,15.75
2022-10-30T06:01:09.875Z,15.75
2022-10-30T06:02:12.295Z,15.74
2022-10-30T06:03:14.234Z,15.74
2022-10-30T06:04:16.082Z,15.77
2022-10-30T06:05:17.983Z,15.77
2022-10-30T06:06:19.910Z,15.79
2022-10-30T06:07:21.724Z,15.79
2022-10-30T06:08:23.599Z,15.77
2022-10-30T06:09:25.426Z,15.78
2022-10-30T06:10:27.236Z,15.76
2022-10-30T06:11:29.060Z,15.75
2022-10-30T06:12:30.883Z,15.75
2022-10-30T06:13:32.795Z,15.77
2022-10-30T06:14:34.642Z,15.79
2022-10-30T06:15:36.470Z,15.82
2022-10-30T06:16:38.416Z,15.81
2022-10-30T06:17:40.242Z,15.80
2022-10-30T06:18:42.142Z,15.79
2022-10-30T06:19:43.978Z,15.77
2022-10-30T06:20:45.798Z,15.77
2022-10-30T06:21:47.634Z,15.78
2022-10-30T06:22:49.595Z,15.77
2022-10-30T06:23:51.452Z,15.81
2022-10-30T06:24:53.584Z,15.82
2022-10-30T06:25:55.411Z,15.82
2022-10-30T06:26:57.284Z,15.83
2022-10-30T06:27:59.398Z,15.84
2022-10-30T06:29:01.630Z,15.87
2022-10-30T06:30:03.522Z,15.89
2022-10-30T06:31:05.428Z,15.89
2022-10-30T06:32:07.284Z,15.89
2022-10-30T06:33:09.116Z,15.90
2022-10-30T06:34:10.989Z,15.91
2022-10-30T06:35:12.828Z,15.93
2022-10-30T06:36:14.997Z,15.95
2022-10-30T06:37:16.949Z,15.97
2022-10-30T06:38:18.841Z,15.99
2022-10-30T06:39:20.714Z,16.00
2022-10-30T06:40:22.937Z,16.02
2022-10-30T06:41:27.597Z,16.02
2022-10-30T06:42:28.369Z,16.04
2022-10-30T06:43:30.165Z,16.04
2022-10-30T06:44:32.039Z,16.05
2022-10-30T06:45:33.876Z,16.05
2022-10-30T06:46:35.694Z,16.07
2022-10-30T06:47:37.505Z,16.08
2022-10-30T06:48:39.332Z,16.09
2022-10-30T06:49:41.280Z,16.10
2022-10-30T06:50:43.126Z,16.10
2022-10-30T06:51:44.974Z,16.11
2022-10-30T06:52:46.808Z,16.13
2022-10-30T06:53:48.663Z,16.12
2022-10-30T06:54:50.512Z,16.12
2022-10-30T06:55:57.799Z,16.13
2022-10-30T06:56:55.913Z,16.13
2022-10-30T06:57:58.284Z,16.15
2022-10-30T06:59:00.383Z,16.15
2022-10-30T07:00:02.284Z,16.16
2022-10-30T07:01:04.100Z,16.14
2022-10-30T07:02:07.072Z,16.16
2022-10-30T07:03:09.595Z,16.16
2022-10-30T07:04:11.369Z,16.16
2022-10-30T07:05:13.233Z,16.15
2022-10-30T07:06:15.026Z,16.13
2022-10-30T07:07:16.838Z,16.13
2022-10-30T07:08:18.651Z,16.15
2022-10-30T07:09:20.457Z,16.14
2022-10-30T07:10:22.339Z,16.15
2022-10-30T07:11:24.163Z,16.17
2022-10-30T07:12:25.990Z,16.17
2022-10-30T07:13:27.808Z,16.17
2022-10-30T07:14:29.600Z,16.16
2022-10-30T07:15:31.659Z,16.15
2022-10-30T07:16:33.726Z,16.16
2022-10-30T07:17:35.534Z,16.17
2022-10-30T07:18:37.355Z,16.17
2022-10-30T07:19:39.165Z,16.18
2022-10-30T07:20:41.035Z,16.19
2022-10-30T07:21:42.857Z,16.20
2022-10-30T07:22:44.684Z,16.22
2022-10-30T07:23:46.492Z,16.22
2022-10-30T07:24:48.315Z,16.23
2022-10-30T07:25:50.176Z,16.23
2022-10-30T07:26:51.985Z,16.23
2022-10-30T07:27:53.777Z,16.23
2022-10-30T07:28:55.580Z,16.23
2022-10-30T07:29:57.403Z,16.21
2022-10-30T07:30:59.292Z,16.21
2022-10-30T07:32:03.356Z,16.21
2022-10-30T07:33:04.740Z,16.22
2022-10-30T07:34:06.544Z,16.23
2022-10-30T07:35:08.334Z,16.22
2022-10-30T07:36:10.693Z,16.24
2022-10-30T07:37:12.506Z,16.24
2022-10-30T07:38:14.312Z,16.24
2022-10-30T07:39:16.124Z,16.24
2022-10-30T07:40:18.033Z,16.25
2022-10-30T07:41:19.871Z,16.24
2022-10-30T07:42:21.682Z,16.24
2022-10-30T07:43:23.528Z,16.25
2022-10-30T07:44:25.333Z,16.25
2022-10-30T07:46:29.913Z,16.39
2022-10-30T07:47:31.739Z,16.29
2022-10-30T07:48:33.543Z,16.30
2022-10-30T07:49:35.365Z,16.30
2022-10-30T07:50:37.198Z,16.30
2022-10-30T07:51:39.081Z,16.29
2022-10-30T07:52:40.895Z,16.29
2022-10-30T07:53:42.719Z,16.29
2022-10-30T07:54:44.550Z,16.30
2022-10-30T07:55:46.386Z,16.31
2022-10-30T07:56:48.341Z,16.33
2022-10-30T07:57:50.184Z,16.35
2022-10-30T07:58:52.011Z,16.35
2022-10-30T07:59:55.871Z,16.34
2022-10-30T08:00:57.640Z,16.36
2022-10-30T08:01:59.654Z,16.35
2022-10-30T08:03:02.133Z,16.37
2022-10-30T08:04:04.279Z,16.37
2022-10-30T08:05:06.109Z,16.38
2022-10-30T08:07:11.117Z,16.37
2022-10-30T08:08:12.962Z,16.37
2022-10-30T08:09:14.773Z,16.36
2022-10-30T08:10:16.692Z,16.37
2022-10-30T08:11:18.517Z,16.37
2022-10-30T08:12:20.461Z,16.37
2022-10-30T08:13:22.287Z,16.38
2022-10-30T08:14:24.097Z,16.38
2022-10-30T08:15:25.927Z,16.39
2022-10-30T08:16:27.747Z,16.40
2022-10-30T08:17:29.687Z,16.40
2022-10-30T08:18:31.498Z,16.42
2022-10-30T08:19:33.333Z,16.43
2022-10-30T08:20:35.215Z,16.43
2022-10-30T08:21:36.988Z,16.44
2022-10-30T08:22:39.890Z,16.43
2022-10-30T08:23:41.744Z,16.43
2022-10-30T08:24:43.574Z,16.44
2022-10-30T08:25:45.389Z,16.43
2022-10-30T08:26:47.212Z,16.44
2022-10-30T08:27:49.061Z,16.45
2022-10-30T08:28:50.942Z,16.45
2022-10-30T08:29:52.861Z,16.47
2022-10-30T08:30:54.696Z,16.50
2022-10-30T08:31:56.528Z,16.52
2022-10-30T08:32:58.774Z,16.54
2022-10-30T08:34:00.747Z,16.55
2022-10-30T08:35:02.621Z,16.56
2022-10-30T08:36:04.419Z,16.58
2022-10-30T08:37:06.242Z,16.59
2022-10-30T08:38:08.107Z,16.60
2022-10-30T08:39:09.984Z,16.60
2022-10-30T08:40:12.436Z,16.61
2022-10-30T08:41:14.270Z,16.61
2022-10-30T08:42:16.083Z,16.62
2022-10-30T08:43:17.945Z,16.62
2022-10-30T08:44:19.787Z,16.65
2022-10-30T08:45:25.109Z,16.66
2022-10-30T08:46:25.248Z,16.69
2022-10-30T08:47:27.065Z,16.70
2022-10-30T08:48:29.055Z,16.71
2022-10-30T08:49:30.870Z,16.74
2022-10-30T08:50:32.714Z,16.74
2022-10-30T08:51:34.690Z,16.75
2022-10-30T08:52:36.507Z,16.76
2022-10-30T08:53:38.399Z,16.77
2022-10-30T08:54:40.235Z,16.79
2022-10-30T08:55:42.150Z,16.78
2022-10-30T08:56:44.002Z,16.81
2022-10-30T08:57:45.812Z,16.80
2022-10-30T08:58:47.699Z,16.82
2022-10-30T08:59:49.545Z,16.83
2022-10-30T09:00:51.390Z,16.86
2022-10-30T09:01:53.348Z,16.87
2022-10-30T09:02:55.364Z,16.88
2022-10-30T09:03:57.328Z,16.89
2022-10-30T09:04:59.219Z,16.91
2022-10-30T09:06:01.017Z,16.92
2022-10-30T09:07:03.801Z,16.92
2022-10-30T09:08:06.391Z,16.93
2022-10-30T09:09:08.277Z,16.95
2022-10-30T09:10:10.211Z,16.97
2022-10-30T09:11:12.040Z,16.98
2022-10-30T09:12:13.857Z,17.02
2022-10-30T09:13:15.683Z,17.04
2022-10-30T09:14:17.563Z,17.05
2022-10-30T09:15:19.431Z,17.07
2022-10-30T09:16:21.241Z,17.08
2022-10-30T09:17:23.060Z,17.08
2022-10-30T09:18:24.879Z,17.09
2022-10-30T09:19:26.831Z,17.09
2022-10-30T09:20:28.649Z,17.11
2022-10-30T09:21:30.464Z,17.13
2022-10-30T09:22:32.285Z,17.15
2022-10-30T09:23:34.115Z,17.16
2022-10-30T09:24:36.009Z,17.15
2022-10-30T09:25:37.840Z,17.16
2022-10-30T09:26:39.660Z,17.20
2022-10-30T09:27:41.494Z,17.22
2022-10-30T09:28:43.334Z,17.25
2022-10-30T09:29:45.185Z,17.27
2022-10-30T09:30:47.011Z,17.29
2022-10-30T09:31:48.845Z,17.31
2022-10-30T09:32:54.852Z,17.33
2022-10-30T09:33:54.327Z,17.34
2022-10-30T09:34:56.224Z,17.35
2022-10-30T09:35:58.035Z,17.35
2022-10-30T09:36:59.849Z,17.37
2022-10-30T09:38:02.090Z,17.39
2022-10-30T09:39:04.213Z,17.40
2022-10-30T09:40:06.191Z,17.42
2022-10-30T09:41:08.005Z,17.45
2022-10-30T09:42:09.823Z,17.47
2022-10-30T09:43:11.640Z,17.48
2022-10-30T09:44:13.466Z,17.49
2022-10-30T09:45:28.602Z,17.50
2022-10-30T09:46:19.078Z,17.50
2022-10-30T09:47:23.528Z,17.52
2022-10-30T09:48:24.531Z,17.52
2022-10-30T09:49:26.350Z,17.53
2022-10-30T09:50:28.283Z,17.53
2022-10-30T09:51:30.102Z,17.56
2022-10-30T09:52:31.936Z,17.58
2022-10-30T09:53:33.754Z,17.60
2022-10-30T09:54:35.582Z,17.62
2022-10-30T09:55:37.451Z,17.63
2022-10-30T09:56:39.371Z,17.63
2022-10-30T09:57:41.194Z,17.66
2022-10-30T09:58:43.015Z,17.67
2022-10-30T09:59:44.854Z,17.67
2022-10-30T10:00:46.698Z,17.68
2022-10-30T10:01:48.612Z,17.70
2022-10-30T10:02:50.479Z,17.69
2022-10-30T10:04:53.951Z,17.66
2022-10-30T10:05:55.838Z,17.65
2022-10-30T10:06:57.630Z,17.65
2022-10-30T10:07:59.757Z,17.64
2022-10-30T10:09:01.771Z,17.62
2022-10-30T10:10:03.638Z,17.62
2022-10-30T10:11:05.442Z,17.63
2022-10-30T10:12:07.337Z,17.62
2022-10-30T10:13:09.451Z,17.62
2022-10-30T10:14:11.500Z,17.62
2022-10-30T10:15:13.315Z,17.61
2022-10-30T10:16:15.474Z,17.61
2022-10-30T10:17:17.285Z,17.60
2022-10-30T10:18:19.149Z,17.60
2022-10-30T10:19:21.023Z,17.59
2022-10-30T10:20:22.847Z,17.60
2022-10-30T10:21:24.837Z,17.59
2022-10-30T10:22:26.654Z,17.59
2022-10-30T10:23:28.478Z,17.60
2022-10-30T10:24:30.305Z,17.61
2022-10-30T10:25:32.132Z,17.61
2022-10-30T10:26:33.983Z,17.61
2022-10-30T10:27:35.819Z,17.61
2022-10-30T10:28:37.624Z,17.61
2022-10-30T10:29:39.454Z,17.61
2022-10-30T10:30:41.303Z,17.62
2022-10-30T10:31:43.143Z,17.62
2022-10-30T10:32:44.974Z,17.61
2022-10-30T10:33:46.786Z,17.61
2022-10-30T10:34:48.600Z,17.62
2022-10-30T10:35:50.460Z,17.63
2022-10-30T10:36:52.460Z,17.64
2022-10-30T10:37:54.274Z,17.65
2022-10-30T10:38:56.070Z,17.65
2022-10-30T10:39:57.889Z,17.64
2022-10-30T10:41:00.099Z,17.64
2022-10-30T10:42:01.943Z,17.65
2022-10-30T10:43:03.759Z,17.66
2022-10-30T10:44:05.560Z,17.67
2022-10-30T10:45:07.380Z,17.67
2022-10-30T10:46:09.501Z,17.68
2022-10-30T10:47:11.371Z,17.69
2022-10-30T10:49:14.864Z,17.69
2022-10-30T10:50:16.987Z,17.69
2022-10-30T10:51:18.793Z,17.70
2022-10-30T10:52:21.506Z,17.71
2022-10-30T10:53:23.319Z,17.70
2022-10-30T10:54:25.135Z,17.71
2022-10-30T10:55:26.967Z,17.71
2022-10-30T10:56:28.797Z,17.68
2022-10-30T10:57:30.957Z,17.65
2022-10-30T10:58:32.780Z,17.66
2022-10-30T10:59:34.682Z,17.63
2022-10-30T11:00:36.487Z,17.65
2022-10-30T11:01:38.562Z,17.65
2022-10-30T11:02:40.597Z,17.68
2022-10-30T11:03:42.422Z,17.69
2022-10-30T11:04:44.242Z,17.71
2022-10-30T11:05:46.059Z,17.73
2022-10-30T11:06:47.867Z,17.74
2022-10-30T11:07:49.799Z,17.75
2022-10-30T11:08:51.637Z,17.74
2022-10-30T11:09:53.473Z,17.75
2022-10-30T11:10:55.303Z,17.77
2022-10-30T11:11:57.116Z,17.77
2022-10-30T11:12:59.221Z,17.80
2022-10-30T11:14:01.302Z,17.82
2022-10-30T11:15:03.136Z,17.83
2022-10-30T11:16:05.064Z,17.84
2022-10-30T11:17:06.878Z,17.84
2022-10-30T11:18:09.215Z,17.84
2022-10-30T11:19:11.030Z,17.85
2022-10-30T11:20:12.969Z,17.86
2022-10-30T11:21:14.787Z,17.88
2022-10-30T11:22:16.592Z,17.87
2022-10-30T11:23:18.583Z,17.86
2022-10-30T11:24:20.404Z,17.86
2022-10-30T11:25:25.469Z,17.85
2022-10-30T11:26:25.809Z,17.85
2022-10-30T11:27:27.597Z,17.85
2022-10-30T11:28:29.466Z,17.85
2022-10-30T11:29:31.271Z,17.85
2022-10-30T11:30:33.065Z,17.84
2022-10-30T11:31:34.999Z,17.86
2022-10-30T11:32:36.840Z,17.87
2022-10-30T11:33:38.679Z,17.89
2022-10-30T11:34:40.485Z,17.89
2022-10-30T11:35:42.309Z,17.89
2022-10-30T11:36:44.253Z,17.90
2022-10-30T11:37:46.055Z,17.85
2022-10-30T11:38:47.962Z,17.85
2022-10-30T11:39:49.782Z,17.87
2022-10-30T11:40:51.595Z,17.87
2022-10-30T11:41:54.815Z,17.86
2022-10-30T11:42:57.626Z,17.85
2022-10-30T11:44:00.000Z,17.86
2022-10-30T11:45:01.938Z,17.87
2022-10-30T11:46:03.871Z,17.86
2022-10-30T11:47:05.736Z,17.87
2022-10-30T11:48:13.309Z,17.88
2022-10-30T11:49:11.180Z,17.89
2022-10-30T11:50:13.313Z,17.89
2022-10-30T11:51:15.160Z,17.89
2022-10-30T11:52:16.915Z,17.90
2022-10-30T11:53:18.751Z,17.87
2022-10-30T11:54:21.553Z,17.85
2022-10-30T11:55:23.399Z,17.83
2022-10-30T11:56:25.224Z,17.84
2022-10-30T11:57:27.038Z,17.83
2022-10-30T11:58:28.829Z,17.83
2022-10-30T11:59:30.713Z,17.84
2022-10-30T12:00:32.551Z,17.85
2022-10-30T12:01:34.367Z,17.84
2022-10-30T12:03:37.864Z,17.86
2022-10-30T12:04:39.695Z,17.86
2022-10-30T12:05:43.729Z,17.86
2022-10-30T12:06:45.161Z,17.84
2022-10-30T12:07:46.981Z,17.85
2022-10-30T12:08:48.790Z,17.85
2022-10-30T12:09:50.745Z,17.85
2022-10-30T12:10:52.585Z,17.85
2022-10-30T12:11:54.403Z,17.86
2022-10-30T12:12:56.640Z,17.84
2022-10-30T12:13:58.854Z,17.85
2022-10-30T12:15:00.725Z,17.86
2022-10-30T12:16:02.553Z,17.84
2022-10-30T12:17:04.392Z,17.84
2022-10-30T12:18:06.202Z,17.85
2022-10-30T12:19:08.025Z,17.84
2022-10-30T12:20:09.998Z,17.83
2022-10-30T12:21:11.843Z,17.83
2022-10-30T12:22:13.671Z,17.83
2022-10-30T12:23:15.484Z,17.82
2022-10-30T12:24:17.306Z,17.81
2022-10-30T12:25:19.254Z,17.80
2022-10-30T12:26:21.179Z,17.81
2022-10-30T12:27:22.996Z,17.81
2022-10-30T12:28:24.809Z,17.81
2022-10-30T12:29:41.828Z,17.81
2022-10-30T12:30:30.335Z,17.81
2022-10-30T12:31:32.154Z,17.82
2022-10-30T12:32:38.593Z,17.81
2022-10-30T12:33:37.632Z,17.81
2022-10-30T12:34:39.438Z,17.81
2022-10-30T12:35:41.306Z,17.81
2022-10-30T12:36:43.140Z,17.81
2022-10-30T12:37:44.984Z,17.81
2022-10-30T12:38:46.798Z,17.79
2022-10-30T12:39:48.609Z,17.80
2022-10-30T12:40:50.570Z,17.80
2022-10-30T12:41:52.475Z,17.80
2022-10-30T12:42:54.256Z,17.81
2022-10-30T12:43:56.081Z,17.82
2022-10-30T12:44:57.919Z,17.82
2022-10-30T12:46:00.082Z,17.81
2022-10-30T12:47:01.911Z,17.82
2022-10-30T12:48:03.864Z,17.81
2022-10-30T12:49:05.647Z,17.81
2022-10-30T12:50:07.591Z,17.81
2022-10-30T12:51:09.436Z,17.81
2022-10-30T12:52:11.271Z,17.81
2022-10-30T12:53:13.163Z,17.80
2022-10-30T12:54:14.989Z,17.78
2022-10-30T12:55:16.939Z,17.78
2022-10-30T12:56:18.960Z,17.76
2022-10-30T12:57:20.793Z,17.75
2022-10-30T12:58:22.641Z,17.75
2022-10-30T12:59:24.490Z,17.71
2022-10-30T13:00:26.300Z,17.70
2022-10-30T13:01:28.276Z,17.69
2022-10-30T13:02:30.280Z,17.68
2022-10-30T13:03:32.142Z,17.66
2022-10-30T13:04:33.960Z,17.65
2022-10-30T13:05:35.866Z,17.63
2022-10-30T13:06:37.871Z,17.62
2022-10-30T13:07:39.680Z,17.61
2022-10-30T13:08:41.542Z,17.61
2022-10-30T13:09:43.356Z,17.59
2022-10-30T13:10:45.198Z,17.59
2022-10-30T13:11:47.080Z,17.58
2022-10-30T13:12:48.908Z,17.59
2022-10-30T13:13:50.753Z,17.59
2022-10-30T13:14:52.568Z,17.58
2022-10-30T13:15:54.414Z,17.58
2022-10-30T13:16:56.273Z,17.57
2022-10-30T13:17:58.437Z,17.59
2022-10-30T13:19:00.418Z,17.59
2022-10-30T13:20:02.238Z,17.59
2022-10-30T13:21:04.062Z,17.59
2022-10-30T13:22:05.935Z,17.59
2022-10-30T13:23:07.762Z,17.59
2022-10-30T13:24:09.584Z,17.58
2022-10-30T13:25:11.412Z,17.58
2022-10-30T13:26:13.431Z,17.59
2022-10-30T13:27:15.431Z,17.59
2022-10-30T13:28:17.261Z,17.60
2022-10-30T13:29:19.119Z,17.60
2022-10-30T13:30:20.977Z,17.58
2022-10-30T13:31:22.766Z,17.57
2022-10-30T13:32:24.633Z,17.57
2022-10-30T13:33:26.455Z,17.56
2022-10-30T13:34:28.278Z,17.55
2022-10-30T13:35:30.101Z,17.55
2022-10-30T13:36:31.934Z,17.55
2022-10-30T13:37:33.851Z,17.53
2022-10-30T13:38:35.677Z,17.54
2022-10-30T13:39:37.517Z,17.54
2022-10-30T13:40:39.325Z,17.54
2022-10-30T13:41:41.163Z,17.53
2022-10-30T13:42:43.549Z,17.53
2022-10-30T13:43:45.382Z,17.54
2022-10-30T13:44:47.205Z,17.54
2022-10-30T13:45:49.039Z,17.56
2022-10-30T13:46:50.977Z,17.55
2022-10-30T13:47:52.876Z,17.54
2022-10-30T13:48:54.703Z,17.54
2022-10-30T13:49:56.548Z,17.53
2022-10-30T13:50:58.384Z,17.53
2022-10-30T13:52:00.195Z,17.53
2022-10-30T13:53:02.417Z,17.53
2022-10-30T13:54:04.496Z,17.54
2022-10-30T13:55:06.305Z,17.54
2022-10-30T13:56:08.434Z,17.55
2022-10-30T13:57:10.302Z,17.54
2022-10-30T13:58:12.241Z,17.53
2022-10-30T13:59:14.081Z,17.53
2022-10-30T14:00:16.323Z,17.52
2022-10-30T14:01:18.288Z,17.52
2022-10-30T14:02:20.356Z,17.52
2022-10-30T14:03:22.278Z,17.51
2022-10-30T14:04:24.119Z,17.51
2022-10-30T14:05:25.944Z,17.50
2022-10-30T14:06:27.773Z,17.50
2022-10-30T14:07:29.607Z,17.50
2022-10-30T14:09:33.253Z,17.49
2022-10-30T14:10:35.069Z,17.48
2022-10-30T14:11:36.876Z,17.48
2022-10-30T14:12:38.760Z,17.47
2022-10-30T14:13:40.745Z,17.45
2022-10-30T14:14:42.571Z,17.45
2022-10-30T14:15:44.386Z,17.45
2022-10-30T14:16:46.208Z,17.44
2022-10-30T14:17:48.052Z,17.44
2022-10-30T14:18:49.927Z,17.42
2022-10-30T14:19:51.738Z,17.42
2022-10-30T14:20:53.589Z,17.41
2022-10-30T14:21:55.402Z,17.40
2022-10-30T14:22:57.579Z,17.40
2022-10-30T14:23:59.576Z,17.40
2022-10-30T14:25:01.406Z,17.39
2022-10-30T14:26:03.215Z,17.39
2022-10-30T14:27:05.011Z,17.38
2022-10-30T14:28:06.825Z,17.39
2022-10-30T14:29:08.729Z,17.36
2022-10-30T14:30:10.537Z,17.36
2022-10-30T14:31:12.343Z,17.35
2022-10-30T14:32:14.160Z,17.35
2022-10-30T14:33:16.060Z,17.34
2022-10-30T14:34:17.926Z,17.33
2022-10-30T14:35:19.738Z,17.32
2022-10-30T14:36:22.168Z,17.33
2022-10-30T14:37:23.988Z,17.32
2022-10-30T14:38:25.799Z,17.32
2022-10-30T14:39:27.688Z,17.33
2022-10-30T14:40:29.503Z,17.32
2022-10-30T14:41:31.322Z,17.33
2022-10-30T14:42:33.136Z,17.32
2022-10-30T14:43:34.971Z,17.33
2022-10-30T14:44:37.013Z,17.32
2022-10-30T14:45:38.854Z,17.32
2022-10-30T14:46:40.686Z,17.31
2022-10-30T14:47:42.504Z,17.31
2022-10-30T14:48:44.339Z,17.31
2022-10-30T14:49:46.214Z,17.31
2022-10-30T14:50:48.004Z,17.30
2022-10-30T14:51:49.818Z,17.30
2022-10-30T14:52:51.643Z,17.29
2022-10-30T14:53:53.435Z,17.28
2022-10-30T14:54:55.299Z,17.27
2022-10-30T14:55:57.122Z,17.26
2022-10-30T14:56:58.937Z,17.26
2022-10-30T14:58:01.023Z,17.26
2022-10-30T14:59:02.968Z,17.25
2022-10-30T15:00:05.034Z,17.23
2022-10-30T15:01:06.884Z,17.24
2022-10-30T15:02:08.853Z,17.22
2022-10-30T15:03:10.675Z,17.21
2022-10-30T15:04:12.486Z,17.20
2022-10-30T15:05:14.349Z,17.21
2022-10-30T15:06:16.399Z,17.20
2022-10-30T15:07:18.290Z,17.19
2022-10-30T15:08:20.124Z,17.20
2022-10-30T15:09:21.932Z,17.19
2022-10-30T15:10:23.806Z,17.18
2022-10-30T15:11:25.595Z,17.17
2022-10-30T15:13:29.127Z,17.16
2022-10-30T15:14:55.147Z,17.15
2022-10-30T15:15:34.621Z,17.16
2022-10-30T15:16:36.532Z,17.15
2022-10-30T15:17:38.342Z,17.14
2022-10-30T15:18:40.150Z,17.15
2022-10-30T15:19:42.007Z,17.14
2022-10-30T15:20:43.862Z,17.14
2022-10-30T15:21:45.672Z,17.13
2022-10-30T15:22:47.498Z,17.13
2022-10-30T15:23:49.450Z,17.13
2022-10-30T15:24:51.239Z,17.12
2022-10-30T15:25:53.132Z,17.11
2022-10-30T15:26:55.141Z,17.11
2022-10-30T15:27:57.381Z,17.11
2022-10-30T15:28:59.439Z,17.10
2022-10-30T15:30:01.237Z,17.10
2022-10-30T15:31:03.180Z,17.09
2022-10-30T15:32:05.015Z,17.10
2022-10-30T15:33:06.828Z,17.09
2022-10-30T15:34:08.689Z,17.09
2022-10-30T15:35:10.501Z,17.08
2022-10-30T15:36:13.280Z,17.09
2022-10-30T15:37:15.098Z,17.09
2022-10-30T15:38:16.924Z,17.07
2022-10-30T15:39:18.736Z,17.07
2022-10-30T15:40:20.553Z,17.08
2022-10-30T15:41:22.421Z,17.06
2022-10-30T15:42:24.254Z,17.07
2022-10-30T15:43:26.350Z,17.07
2022-10-30T15:44:28.156Z,17.07
2022-10-30T15:45:30.001Z,17.06
2022-10-30T15:46:31.965Z,17.06
2022-10-30T15:47:33.816Z,17.06
2022-10-30T15:48:35.638Z,17.06
2022-10-30T15:49:37.455Z,17.06
2022-10-30T15:50:39.341Z,17.05
2022-10-30T15:51:41.226Z,17.04
2022-10-30T15:52:43.049Z,17.05
2022-10-30T15:53:44.857Z,17.04
2022-10-30T15:54:46.675Z,17.04
2022-10-30T15:55:48.769Z,17.04
2022-10-30T15:57:23.990Z,17.04
2022-10-30T15:58:09.665Z,17.03
2022-10-30T15:58:57.949Z,17.03
2022-10-30T15:59:59.784Z,17.02
2022-10-30T16:01:01.685Z,17.02
2022-10-30T16:02:03.860Z,17.02
2022-10-30T16:03:05.699Z,17.02
2022-10-30T16:04:07.512Z,17.00
2022-10-30T16:05:09.343Z,17.00
2022-10-30T16:06:11.258Z,16.99
2022-10-30T16:07:13.114Z,16.99
2022-10-30T16:08:14.995Z,16.98
2022-10-30T16:09:16.790Z,16.98
2022-10-30T16:10:18.627Z,16.98
2022-10-30T16:11:20.484Z,16.97
2022-10-30T16:12:22.303Z,16.97
2022-10-30T16:13:24.124Z,16.96
2022-10-30T16:14:25.904Z,16.97
2022-10-30T16:15:27.712Z,16.95
2022-10-30T16:16:29.541Z,16.95
2022-10-30T16:17:31.443Z,16.95
2022-10-30T16:18:33.278Z,16.95
2022-10-30T16:19:35.093Z,16.93
2022-10-30T16:20:37.008Z,16.93
2022-10-30T16:21:38.813Z,16.92
2022-10-30T16:22:40.683Z,16.93
2022-10-30T16:23:42.491Z,16.91
2022-10-30T16:24:44.274Z,16.91
2022-10-30T16:25:47.570Z,16.90
2022-10-30T16:26:49.443Z,16.91
2022-10-30T16:27:51.614Z,16.90
2022-10-30T16:28:53.420Z,16.90
2022-10-30T16:29:55.233Z,16.89
2022-10-30T16:30:57.039Z,16.89
2022-10-30T16:31:58.966Z,16.88
2022-10-30T16:33:01.530Z,16.87
2022-10-30T16:34:03.665Z,16.87
2022-10-30T16:35:05.506Z,16.86
2022-10-30T16:36:07.733Z,16.84
2022-10-30T16:37:09.550Z,16.83
2022-10-30T16:38:11.421Z,16.82
2022-10-30T16:39:13.256Z,16.80
2022-10-30T16:40:15.105Z,16.79
2022-10-30T16:41:16.903Z,16.79
2022-10-30T16:42:18.715Z,16.78
2022-10-30T16:43:20.581Z,16.77
2022-10-30T16:44:23.441Z,16.76
2022-10-30T16:45:25.257Z,16.77
2022-10-30T16:46:27.688Z,16.76
2022-10-30T16:47:29.520Z,16.76
2022-10-30T16:48:31.417Z,16.74
2022-10-30T16:49:33.259Z,16.75
2022-10-30T16:50:35.074Z,16.72
2022-10-30T16:51:36.912Z,16.73
2022-10-30T16:52:38.732Z,16.72
2022-10-30T16:53:40.594Z,16.72
2022-10-30T16:54:42.444Z,16.71
2022-10-30T16:55:44.256Z,16.71
2022-10-30T16:56:46.183Z,16.70
2022-10-30T16:57:48.013Z,16.70
2022-10-30T16:58:49.895Z,16.69
2022-10-30T16:59:51.716Z,16.69
2022-10-30T17:00:53.629Z,16.70
2022-10-30T17:01:55.636Z,16.70
2022-10-30T17:02:57.912Z,16.68
2022-10-30T17:04:00.175Z,16.68
2022-10-30T17:05:02.292Z,16.68
2022-10-30T17:06:04.138Z,16.66
2022-10-30T17:07:06.009Z,16.66
2022-10-30T17:08:07.808Z,16.67
2022-10-30T17:09:09.670Z,16.65
2022-10-30T17:10:11.645Z,16.67
2022-10-30T17:11:13.451Z,16.66
2022-10-30T17:12:15.512Z,16.66
2022-10-30T17:13:17.552Z,16.65
2022-10-30T17:14:19.543Z,16.65
2022-10-30T17:15:21.363Z,16.64
2022-10-30T17:16:25.141Z,16.64
2022-10-30T17:17:26.949Z,16.64
2022-10-30T17:18:29.832Z,16.63
2022-10-30T17:19:31.758Z,16.62
2022-10-30T17:20:33.666Z,16.61
2022-10-30T17:21:35.496Z,16.61
2022-10-30T17:22:37.322Z,16.61
2022-10-30T17:23:39.155Z,16.60
2022-10-30T17:24:41.037Z,16.60
2022-10-30T17:25:42.872Z,16.60
2022-10-30T17:26:44.690Z,16.59
2022-10-30T17:27:47.339Z,16.58
2022-10-30T17:28:49.374Z,16.57
2022-10-30T17:29:51.247Z,16.56
2022-10-30T17:30:53.073Z,16.56
2022-10-30T17:31:54.892Z,16.55
2022-10-30T17:32:57.147Z,16.53
2022-10-30T17:33:59.290Z,16.53
2022-10-30T17:35:01.201Z,16.53
2022-10-30T17:36:03.048Z,16.53
2022-10-30T17:37:04.854Z,16.51
2022-10-30T17:38:06.900Z,16.52
2022-10-30T17:39:08.874Z,16.50
2022-10-30T17:40:10.964Z,16.50
2022-10-30T17:41:12.914Z,16.49
2022-10-30T17:42:14.710Z,16.48
2022-10-30T17:43:16.541Z,16.47
2022-10-30T17:44:18.280Z,16.48
2022-10-30T17:45:20.158Z,16.48
2022-10-30T17:46:22.174Z,16.46
2022-10-30T17:47:24.085Z,16.47
2022-10-30T17:48:25.908Z,16.45
2022-10-30T17:49:27.736Z,16.43
2022-10-30T17:50:29.674Z,16.42
2022-10-30T17:51:31.511Z,16.42
2022-10-30T17:52:33.441Z,16.41
2022-10-30T17:53:35.258Z,16.40
2022-10-30T17:54:37.083Z,16.39
2022-10-30T17:55:39.033Z,16.40
2022-10-30T17:56:40.924Z,16.39
2022-10-30T17:57:42.772Z,16.39
2022-10-30T17:58:44.588Z,16.38
2022-10-30T17:59:46.405Z,16.37
2022-10-30T18:00:48.564Z,16.38
2022-10-30T18:01:50.558Z,16.36
2022-10-30T18:02:52.474Z,16.35
2022-10-30T18:03:54.319Z,16.35
2022-10-30T18:04:56.189Z,16.34
2022-10-30T18:05:58.052Z,16.34
2022-10-30T18:06:59.889Z,16.34
2022-10-30T18:08:01.701Z,16.34
2022-10-30T18:09:03.525Z,16.34
2022-10-30T18:10:05.551Z,16.34
2022-10-30T18:11:07.435Z,16.34
2022-10-30T18:12:09.248Z,16.34
2022-10-30T18:13:11.078Z,16.34
2022-10-30T18:14:12.883Z,16.34
2022-10-30T18:15:14.729Z,16.34
2022-10-30T18:16:16.813Z,16.33
2022-10-30T18:17:18.622Z,16.32
2022-10-30T18:18:20.465Z,16.33
2022-10-30T18:19:22.461Z,16.33
2022-10-30T18:20:24.312Z,16.33
2022-10-30T18:21:26.198Z,16.32
2022-10-30T18:22:28.033Z,16.32
2022-10-30T18:23:51.338Z,16.30
2022-10-30T18:24:33.481Z,16.30
2022-10-30T18:25:35.302Z,16.30
2022-10-30T18:26:40.431Z,16.29
2022-10-30T18:27:40.909Z,16.29
2022-10-30T18:28:42.727Z,16.29
2022-10-30T18:29:44.554Z,16.28
2022-10-30T18:30:46.366Z,16.27
2022-10-30T18:31:48.238Z,16.27
2022-10-30T18:32:50.073Z,16.27
2022-10-30T18:33:51.895Z,16.27
2022-10-30T18:34:53.698Z,16.26
2022-10-30T18:35:55.599Z,16.25
2022-10-30T18:36:57.627Z,16.25
2022-10-30T18:37:59.468Z,16.24
2022-10-30T18:39:01.307Z,16.23
2022-10-30T18:40:03.132Z,16.23
2022-10-30T18:41:04.981Z,16.22
2022-10-30T18:42:06.852Z,16.22
2022-10-30T18:43:08.669Z,16.23
2022-10-30T18:44:10.503Z,16.22
2022-10-30T18:45:12.343Z,16.21
2022-10-30T18:46:14.260Z,16.22
2022-10-30T18:47:16.209Z,16.20
2022-10-30T18:48:18.027Z,16.21
2022-10-30T18:49:19.853Z,16.22
2022-10-30T18:50:21.775Z,16.21
2022-10-30T18:51:23.581Z,16.21
2022-10-30T18:52:25.485Z,16.20
2022-10-30T18:53:31.300Z,16.21
2022-10-30T18:54:30.946Z,16.20
2022-10-30T18:55:32.831Z,16.20
2022-10-30T18:56:34.670Z,16.20
2022-10-30T18:57:36.544Z,16.20
2022-10-30T18:58:38.348Z,16.19
2022-10-30T18:59:40.155Z,16.20
2022-10-30T19:01:10.017Z,16.20
2022-10-30T19:01:45.681Z,16.19
2022-10-30T19:02:47.938Z,16.20
2022-10-30T19:03:49.887Z,16.18
2022-10-30T19:04:51.744Z,16.18
2022-10-30T19:05:53.568Z,16.20
2022-10-30T19:06:55.361Z,16.19
2022-10-30T19:07:57.641Z,16.18
2022-10-30T19:09:00.021Z,16.17
2022-10-30T19:10:01.850Z,16.17
2022-10-30T19:11:03.657Z,16.17
2022-10-30T19:12:05.511Z,16.17
2022-10-30T19:13:15.063Z,16.18
2022-10-30T19:14:10.980Z,16.19
2022-10-30T19:15:12.838Z,16.19